Time;durP1;ratioP1;P1;durP2;ratioP2;P2;SDS_P1;SDS_P2;PMS_P1;PMS_P2;Temp;Humidity;BMP_temperature;BMP_pressure;BME280_temperature;BME280_humidity;BME280_pressure;Samples;Min_cycle;Max_cycle;Signal;HPM_P1;HPM_P2
2023/01/07 00:01:51;;;;;;;5.13;4.03;;;;;;;;;;5055347;28;20234;-34
2023/01/07 00:04:43;;;;;;;5.90;4.30;;;;;;;;;;5056974;28;20206;-31
2023/01/07 00:07:28;;;;;;;5.17;3.80;;;;;;;;;;5049260;28;20202;-32
2023/01/07 00:10:15;;;;;;;6.00;4.10;;;;;;;;;;5054962;28;20202;-28
2023/01/07 00:15:49;;;;;;;5.27;4.20;;;;;;;;;;5051245;28;20241;-33
2023/01/07 00:18:47;;;;;;;5.60;4.10;;;;;;;;;;5053584;28;20321;-32
2023/01/07 00:21:26;;;;;;;5.37;4.00;;;;;;;;;;5034501;28;20321;-33
2023/01/07 00:24:17;;;;;;;7.90;4.10;;;;;;;;;;5050526;28;20226;-30
2023/01/07 00:29:50;;;;;;;4.37;3.73;;;;;;;;;;5050743;28;20206;-31
2023/01/07 00:35:34;;;;;;;4.93;3.67;;;;;;;;;;5050517;28;20257;-34
2023/01/07 00:38:18;;;;;;;4.07;3.67;;;;;;;;;;5053728;28;20201;-30
2023/01/07 00:41:21;;;;;;;6.30;4.33;;;;;;;;;;5048400;28;20243;-32
2023/01/07 00:44:09;;;;;;;3.60;3.30;;;;;;;;;;5041518;28;20202;-35
2023/01/07 00:46:48;;;;;;;6.50;3.67;;;;;;;;;;5053447;28;20202;-33
2023/01/07 00:55:21;;;;;;;5.10;4.43;;;;;;;;;;5048865;28;20240;-29
2023/01/07 00:58:07;;;;;;;5.07;3.83;;;;;;;;;;5051344;28;20221;-31
2023/01/07 01:00:48;;;;;;;4.27;3.60;;;;;;;;;;5051736;28;20228;-31
2023/01/07 01:06:39;;;;;;;6.77;4.53;;;;;;;;;;5045508;28;20197;-37
2023/01/07 01:09:25;;;;;;;6.20;4.87;;;;;;;;;;5048571;28;20206;-27
2023/01/07 01:14:49;;;;;;;4.73;3.80;;;;;;;;;;5036121;28;20214;-33
2023/01/07 01:17:47;;;;;;;5.10;4.07;;;;;;;;;;5054798;28;20202;-31
2023/01/07 01:23:32;;;;;;;5.47;3.90;;;;;;;;;;5099810;22;20261;-32
2023/01/07 01:26:24;;;;;;;4.53;3.93;;;;;;;;;;5059418;28;20247;-29
2023/01/07 01:31:59;;;;;;;5.40;3.93;;;;;;;;;;5055831;28;20233;-31
2023/01/07 01:34:56;;;;;;;3.63;3.30;;;;;;;;;;5073364;28;20284;-35
2023/01/07 01:37:44;;;;;;;5.53;4.10;;;;;;;;;;5061078;28;20202;-31
2023/01/07 01:43:44;;;;;;;6.37;3.53;;;;;;;;;;5058819;28;20677;-32
2023/01/07 01:46:39;;;;;;;6.10;4.50;;;;;;;;;;5063087;28;20201;-30
2023/01/07 01:49:27;;;;;;;5.30;3.80;;;;;;;;;;5076228;28;20231;-34
2023/01/07 01:52:14;;;;;;;5.47;4.27;;;;;;;;;;5070881;28;20233;-30
2023/01/07 01:54:52;;;;;;;5.90;4.33;;;;;;;;;;5060827;28;20304;-32
2023/01/07 01:57:24;;;;;;;4.40;3.97;;;;;;;;;;5056432;28;20221;-35
2023/01/07 02:00:02;;;;;;;5.57;4.50;;;;;;;;;;5067943;28;20269;-29
2023/01/07 02:02:48;;;;;;;4.97;3.73;;;;;;;;;;5061386;28;20305;-35
2023/01/07 02:05:25;;;;;;;5.37;4.10;;;;;;;;;;5071204;28;20265;-32
2023/01/07 02:07:59;;;;;;;5.63;4.60;;;;;;;;;;5075836;28;20209;-32
2023/01/07 02:10:50;;;;;;;5.63;4.03;;;;;;;;;;5061643;28;20193;-33
2023/01/07 02:13:40;;;;;;;5.00;3.60;;;;;;;;;;5063609;28;20221;-36
2023/01/07 02:16:21;;;;;;;4.33;3.63;;;;;;;;;;5064376;28;20230;-30
2023/01/07 02:19:04;;;;;;;6.47;4.37;;;;;;;;;;5058586;28;20201;-33
2023/01/07 02:25:08;;;;;;;5.00;4.33;;;;;;;;;;5066049;28;20239;-32
2023/01/07 02:27:59;;;;;;;4.30;3.60;;;;;;;;;;5051534;28;20214;-37
2023/01/07 02:30:47;;;;;;;6.10;4.03;;;;;;;;;;5072597;28;20726;-34
2023/01/07 02:33:40;;;;;;;9.20;4.50;;;;;;;;;;5072094;28;20212;-32
2023/01/07 02:36:48;;;;;;;4.83;3.70;;;;;;;;;;5075668;28;20690;-32
2023/01/07 02:39:41;;;;;;;6.20;4.00;;;;;;;;;;4992325;28;20299;-32
2023/01/07 02:42:32;;;;;;;5.40;4.50;;;;;;;;;;5076825;28;20225;-33
2023/01/07 02:45:22;;;;;;;4.47;3.30;;;;;;;;;;5058114;28;20266;-32
2023/01/07 02:48:03;;;;;;;4.67;3.60;;;;;;;;;;5068845;28;20519;-30
2023/01/07 02:50:45;;;;;;;4.23;3.40;;;;;;;;;;5075439;28;20209;-37
2023/01/07 02:53:34;;;;;;;4.07;3.60;;;;;;;;;;5074921;28;20205;-32
2023/01/07 02:56:18;;;;;;;5.03;4.10;;;;;;;;;;5070157;28;20247;-37
2023/01/07 02:59:11;;;;;;;3.77;3.43;;;;;;;;;;5059004;28;20214;-33
2023/01/07 03:02:12;;;;;;;6.97;5.10;;;;;;;;;;5064351;28;20218;-35
2023/01/07 03:04:57;;;;;;;4.60;4.10;;;;;;;;;;5056806;28;20209;-35
2023/01/07 03:07:49;;;;;;;5.93;4.33;;;;;;;;;;5070466;28;20210;-29
2023/01/07 03:10:37;;;;;;;4.03;3.63;;;;;;;;;;5068934;28;20225;-35
2023/01/07 03:13:14;;;;;;;5.47;4.03;;;;;;;;;;5062229;28;20217;-33
2023/01/07 03:15:57;;;;;;;5.23;4.10;;;;;;;;;;5055004;28;20268;-36
2023/01/07 03:19:01;;;;;;;6.60;4.70;;;;;;;;;;5054833;28;20233;-34
2023/01/07 03:21:36;;;;;;;5.00;3.60;;;;;;;;;;5055803;28;20283;-33
2023/01/07 03:24:15;;;;;;;5.43;4.33;;;;;;;;;;5062662;28;20209;-35
2023/01/07 03:29:42;;;;;;;6.03;4.20;;;;;;;;;;5064872;28;20213;-36
2023/01/07 03:32:22;;;;;;;6.37;4.53;;;;;;;;;;5053895;28;20221;-32
2023/01/07 03:34:59;;;;;;;5.10;4.23;;;;;;;;;;5054502;28;20216;-30
2023/01/07 03:37:38;;;;;;;5.13;3.83;;;;;;;;;;5057681;28;20199;-34
2023/01/07 03:40:37;;;;;;;4.27;3.63;;;;;;;;;;5300520;22;20265;-27
2023/01/07 03:43:23;;;;;;;5.07;4.20;;;;;;;;;;5007728;28;20218;-24
2023/01/07 03:46:18;;;;;;;4.77;4.27;;;;;;;;;;5007572;28;20199;-25
2023/01/07 03:49:06;;;;;;;4.37;3.97;;;;;;;;;;5007980;28;20228;-28
2023/01/07 03:51:53;;;;;;;4.40;3.87;;;;;;;;;;4997679;28;20696;-27
2023/01/07 03:54:42;;;;;;;4.77;3.67;;;;;;;;;;5012110;28;20625;-26
2023/01/07 03:57:44;;;;;;;5.53;3.77;;;;;;;;;;5014289;28;20219;-26
2023/01/07 04:03:08;;;;;;;5.10;4.10;;;;;;;;;;5095852;22;20236;-25
2023/01/07 04:05:54;;;;;;;4.83;4.33;;;;;;;;;;5072989;28;20204;-25
2023/01/07 04:08:49;;;;;;;5.30;4.30;;;;;;;;;;5064741;28;20201;-33
2023/01/07 04:14:37;;;;;;;5.17;4.30;;;;;;;;;;5056548;28;20283;-27
2023/01/07 04:23:26;;;;;;;6.30;3.90;;;;;;;;;;5065065;28;20285;-25
2023/01/07 04:26:19;;;;;;;3.93;3.60;;;;;;;;;;5062525;28;20202;-28
2023/01/07 04:32:17;;;;;;;5.33;3.73;;;;;;;;;;5070596;28;20563;-27
2023/01/07 04:35:18;;;;;;;5.20;4.23;;;;;;;;;;5054099;28;20213;-23
2023/01/07 04:41:20;;;;;;;9.50;3.60;;;;;;;;;;5061487;28;20203;-32
2023/01/07 04:44:08;;;;;;;5.07;4.27;;;;;;;;;;5069385;28;20200;-27
2023/01/07 04:46:50;;;;;;;5.67;3.97;;;;;;;;;;5055982;28;20201;-24
2023/01/07 04:52:27;;;;;;;5.03;4.00;;;;;;;;;;5067887;28;20221;-28
2023/01/07 04:55:16;;;;;;;6.10;4.33;;;;;;;;;;5066076;28;20204;-24
2023/01/07 05:01:26;;;;;;;6.23;3.80;;;;;;;;;;5059283;28;20232;-26
2023/01/07 05:04:28;;;;;;;4.80;4.30;;;;;;;;;;5054321;28;20206;-27
2023/01/07 05:10:04;;;;;;;6.00;4.13;;;;;;;;;;5060880;28;20217;-27
2023/01/07 05:12:50;;;;;;;4.83;4.00;;;;;;;;;;5052668;28;20225;-28
2023/01/07 05:15:44;;;;;;;4.43;3.80;;;;;;;;;;5054014;28;20206;-25
2023/01/07 05:18:39;;;;;;;4.10;3.33;;;;;;;;;;5068064;28;20202;-25
2023/01/07 05:21:43;;;;;;;4.43;3.90;;;;;;;;;;5069137;28;20230;-27
2023/01/07 05:27:43;;;;;;;6.77;4.03;;;;;;;;;;5067874;28;20263;-28
2023/01/07 05:33:12;;;;;;;6.83;3.80;;;;;;;;;;5080827;22;20255;-27
2023/01/07 05:36:11;;;;;;;;;;;;;;;;;;;;;
2023/01/07 05:55:21;;;;;;;3.90;3.60;;;;;;;;;;5053542;28;20214;-28
2023/01/07 05:58:04;;;;;;;4.93;3.53;;;;;;;;;;5053709;28;20225;-28
2023/01/07 06:03:31;;;;;;;3.93;3.13;;;;;;;;;;5063143;22;20264;-27
2023/01/07 06:12:50;;;;;;;6.20;3.23;;;;;;;;;;5053743;28;20225;-28
2023/01/07 06:15:46;;;;;;;3.10;2.80;;;;;;;;;;5062765;28;20217;-26
2023/01/07 06:21:54;;;;;;;3.43;3.13;;;;;;;;;;5059527;28;20224;-26
2023/01/07 06:36:47;;;;;;;3.53;3.23;;;;;;;;;;5057866;28;20218;-29
2023/01/07 07:26:49;;;;;;;2.33;1.93;;;;;;;;;;5028176;28;20222;-25
2023/01/07 07:29:51;;;;;;;2.80;2.17;;;;;;;;;;5012584;28;20203;-28
2023/01/07 07:32:54;;;;;;;2.67;2.40;;;;;;;;;;5002826;28;20236;-31
2023/01/07 07:35:33;;;;;;;4.00;2.20;;;;;;;;;;4990458;28;20211;-35
2023/01/07 07:38:15;;;;;;;3.13;2.20;;;;;;;;;;4995041;28;20203;-36
2023/01/07 07:40:59;;;;;;;2.37;2.17;;;;;;;;;;4996370;28;20255;-33
2023/01/07 07:43:45;;;;;;;1.90;1.80;;;;;;;;;;4991921;28;20291;-35
2023/01/07 07:46:22;;;;;;;2.77;2.27;;;;;;;;;;5009990;28;20215;-38
2023/01/07 07:49:00;;;;;;;2.40;1.70;;;;;;;;;;4989869;28;20212;-35
2023/01/07 07:51:42;;;;;;;1.97;1.70;;;;;;;;;;5007447;28;20301;-34
2023/01/07 07:54:28;;;;;;;2.07;1.87;;;;;;;;;;4999504;28;20211;-36
2023/01/07 07:59:52;;;;;;;3.47;2.33;;;;;;;;;;5007956;28;20212;-33
2023/01/07 08:02:47;;;;;;;;;;;;;;;;;;;;;
2023/01/07 08:11:19;;;;;;;2.03;1.87;;;;;;;;;;4993827;28;20228;-36
2023/01/07 08:29:19;;;;;;;2.50;2.20;;;;;;;;;;4961195;28;20209;-35
2023/01/07 08:35:20;;;;;;;2.17;1.97;;;;;;;;;;4994566;28;20282;-33
2023/01/07 08:41:16;;;;;;;3.67;2.47;;;;;;;;;;4993121;28;20707;-31
2023/01/07 08:43:59;;;;;;;2.63;2.43;;;;;;;;;;4967603;28;20239;-38
2023/01/07 08:46:42;;;;;;;3.03;2.57;;;;;;;;;;4990599;28;20212;-34
2023/01/07 08:49:39;;;;;;;3.50;3.07;;;;;;;;;;4973715;28;20209;-33
2023/01/07 08:52:17;;;;;;;3.17;2.70;;;;;;;;;;4955979;28;20237;-32
2023/01/07 08:55:07;;;;;;;3.07;2.50;;;;;;;;;;4983040;28;20205;-33
2023/01/07 08:58:05;;;;;;;2.70;2.50;;;;;;;;;;4973764;28;20217;-29
2023/01/07 09:03:59;;;;;;;3.67;3.23;;;;;;;;;;4972733;28;20220;-35
2023/01/07 09:06:38;;;;;;;3.80;3.47;;;;;;;;;;4971881;28;20213;-27
2023/01/07 09:09:19;;;;;;;4.53;3.50;;;;;;;;;;4986182;28;20204;-31
2023/01/07 09:12:08;;;;;;;3.50;3.20;;;;;;;;;;4997722;28;20230;-32
2023/01/07 09:27:36;;;;;;;2.10;2.00;;;;;;;;;;4970896;28;20263;-30
2023/01/07 09:30:17;;;;;;;2.00;1.87;;;;;;;;;;4972080;28;20277;-35
2023/01/07 09:32:55;;;;;;;2.33;1.80;;;;;;;;;;4983685;28;20236;-36
2023/01/07 09:35:33;;;;;;;2.77;2.30;;;;;;;;;;4976499;28;20217;-35
2023/01/07 09:38:11;;;;;;;2.50;2.30;;;;;;;;;;4967745;28;20208;-36
2023/01/07 09:41:25;;;;;;;4.67;3.60;;;;;;;;;;5008938;23;20209;-32
2023/01/07 09:44:15;;;;;;;4.40;3.30;;;;;;;;;;4973701;28;20315;-35
2023/01/07 09:47:02;;;;;;;3.57;2.90;;;;;;;;;;4972984;28;20213;-32
2023/01/07 09:50:21;;;;;;;3.00;2.70;;;;;;;;;;4956315;28;20213;-32
2023/01/07 09:53:27;;;;;;;3.80;3.23;;;;;;;;;;4993757;23;20248;-32
2023/01/07 09:56:21;;;;;;;3.93;3.20;;;;;;;;;;4963864;28;20209;-34
2023/01/07 09:59:11;;;;;;;3.77;3.23;;;;;;;;;;4959384;28;20220;-31
2023/01/07 10:01:55;;;;;;;4.73;3.03;;;;;;;;;;4966622;28;20228;-32
2023/01/07 10:04:37;;;;;;;3.40;3.10;;;;;;;;;;4970793;28;20202;-33
2023/01/07 10:07:30;;;;;;;3.73;3.33;;;;;;;;;;4948382;28;20208;-34
2023/01/07 10:10:23;;;;;;;3.37;3.07;;;;;;;;;;4955362;28;20201;-33
2023/01/07 10:13:07;;;;;;;2.63;2.43;;;;;;;;;;4953808;28;20261;-35
2023/01/07 10:16:03;;;;;;;3.20;2.90;;;;;;;;;;4949079;28;20235;-33
2023/01/07 10:18:52;;;;;;;3.30;3.00;;;;;;;;;;4953911;28;20213;-34
2023/01/07 10:21:38;;;;;;;5.50;3.43;;;;;;;;;;4974640;28;20228;-32
2023/01/07 10:24:26;;;;;;;3.10;2.80;;;;;;;;;;4964330;28;20225;-35
2023/01/07 10:27:11;;;;;;;2.80;2.60;;;;;;;;;;4953452;28;20212;-36
2023/01/07 10:29:49;;;;;;;4.17;3.20;;;;;;;;;;4954584;28;20202;-30
2023/01/07 10:32:35;;;;;;;3.43;2.70;;;;;;;;;;4964058;28;20292;-34
2023/01/07 10:35:26;;;;;;;3.17;2.83;;;;;;;;;;4936701;29;20245;-31
2023/01/07 10:38:14;;;;;;;3.40;3.10;;;;;;;;;;4949054;29;20212;-30
2023/01/07 10:40:56;;;;;;;3.77;3.07;;;;;;;;;;4953060;28;20205;-32
2023/01/07 10:43:45;;;;;;;3.83;3.43;;;;;;;;;;4947989;28;20277;-34
2023/01/07 10:46:25;;;;;;;3.20;2.87;;;;;;;;;;4963127;28;20209;-34
2023/01/07 10:49:25;;;;;;;3.47;3.17;;;;;;;;;;4954967;29;20201;-33
2023/01/07 10:52:29;;;;;;;4.03;3.50;;;;;;;;;;4951487;28;20243;-31
2023/01/07 10:55:29;;;;;;;3.73;2.93;;;;;;;;;;4956268;28;20226;-33
2023/01/07 10:58:06;;;;;;;3.33;3.03;;;;;;;;;;4937942;29;20213;-33
2023/01/07 11:00:50;;;;;;;3.33;3.03;;;;;;;;;;4955996;28;20205;-33
2023/01/07 11:03:42;;;;;;;3.40;3.10;;;;;;;;;;4959945;28;20201;-33
2023/01/07 11:09:25;;;;;;;3.53;3.23;;;;;;;;;;4955114;28;20245;-32
2023/01/07 11:12:21;;;;;;;4.17;3.30;;;;;;;;;;4943292;28;20274;-30
2023/01/07 11:15:18;;;;;;;4.00;3.60;;;;;;;;;;4957663;28;20246;-32
2023/01/07 11:23:25;;;;;;;5.93;3.43;;;;;;;;;;4986004;28;20224;-27
2023/01/07 11:26:11;;;;;;;3.43;3.10;;;;;;;;;;4992568;28;20331;-24
2023/01/07 11:28:48;;;;;;;2.93;2.60;;;;;;;;;;4993314;28;20212;-26
2023/01/07 11:31:53;;;;;;;3.17;2.97;;;;;;;;;;4993422;28;20231;-26
2023/01/07 11:34:46;;;;;;;2.60;2.40;;;;;;;;;;4988647;28;20231;-26
2023/01/07 11:37:39;;;;;;;3.13;2.50;;;;;;;;;;4987074;28;20232;-26
2023/01/07 11:40:39;;;;;;;3.73;2.70;;;;;;;;;;4989021;28;20216;-24
2023/01/07 11:43:40;;;;;;;2.60;2.40;;;;;;;;;;4981211;28;20231;-25
2023/01/07 11:49:29;;;;;;;2.70;2.50;;;;;;;;;;4989926;28;20208;-27
2023/01/07 11:52:05;;;;;;;3.27;2.97;;;;;;;;;;5090656;23;20240;-25
2023/01/07 11:58:38;;;;;;;15.80;8.63;;;;;;;;;;4993660;28;20213;-27
2023/01/07 12:33:45;;;;;;;2.50;2.30;;;;;;;;;;4981561;28;20209;-25
2023/01/07 12:36:31;;;;;;;2.57;2.37;;;;;;;;;;4980764;28;20345;-26
2023/01/07 12:39:15;;;;;;;2.13;1.93;;;;;;;;;;4993938;28;20208;-28
2023/01/07 12:42:28;;;;;;;2.40;2.10;;;;;;;;;;4990054;28;20585;-25
2023/01/07 16:32:11;;;;;;;3.60;2.90;;;;;;;;;;4995555;28;20211;-25
2023/01/07 16:35:17;;;;;;;2.70;2.50;;;;;;;;;;4975901;28;20256;-26
2023/01/07 16:40:57;;;;;;;2.80;2.60;;;;;;;;;;4982687;28;20223;-27
2023/01/07 16:43:58;;;;;;;2.63;2.43;;;;;;;;;;4992934;28;20204;-26
2023/01/07 16:47:05;;;;;;;3.10;2.80;;;;;;;;;;4995088;28;20208;-25
2023/01/07 16:50:04;;;;;;;2.93;2.60;;;;;;;;;;4977500;28;20204;-27
2023/01/07 16:52:51;;;;;;;2.90;2.70;;;;;;;;;;4979615;28;20239;-25
2023/01/07 16:58:51;;;;;;;2.87;2.60;;;;;;;;;;4968783;28;20276;-25
2023/01/07 17:01:45;;;;;;;4.57;3.50;;;;;;;;;;4996369;28;20227;-27
2023/01/07 17:04:32;;;;;;;6.70;4.30;;;;;;;;;;4990807;28;20204;-25
2023/01/07 17:07:34;;;;;;;19.67;10.37;;;;;;;;;;4989247;28;20269;-24
2023/01/07 17:13:27;;;;;;;7.03;4.47;;;;;;;;;;4982893;28;20212;-26
2023/01/07 17:16:24;;;;;;;6.60;4.87;;;;;;;;;;4986211;28;20231;-26
2023/01/07 17:19:18;;;;;;;7.57;4.83;;;;;;;;;;4979587;28;20433;-27
2023/01/07 17:22:26;;;;;;;6.67;4.17;;;;;;;;;;4977397;28;20235;-28
2023/01/07 17:25:30;;;;;;;3.90;3.37;;;;;;;;;;4977503;28;20216;-27
2023/01/07 17:28:15;;;;;;;5.20;3.67;;;;;;;;;;4980038;28;20243;-21
2023/01/07 17:31:02;;;;;;;8.13;5.27;;;;;;;;;;4980982;28;20307;-27
2023/01/07 17:33:46;;;;;;;4.77;3.63;;;;;;;;;;4995400;28;20204;-27
2023/01/07 17:36:35;;;;;;;4.27;3.70;;;;;;;;;;4994887;28;20251;-27
2023/01/07 17:39:27;;;;;;;6.47;4.17;;;;;;;;;;4988279;28;20212;-24
2023/01/07 17:45:24;;;;;;;11.97;7.80;;;;;;;;;;4987490;28;20203;-23
2023/01/07 17:48:09;;;;;;;13.07;6.60;;;;;;;;;;4991540;28;20212;-25
2023/01/07 17:53:46;;;;;;;12.67;7.83;;;;;;;;;;4966224;28;20209;-24
2023/01/07 17:59:19;;;;;;;10.37;6.93;;;;;;;;;;4954824;28;20425;-25
2023/01/07 18:05:00;;;;;;;11.93;7.30;;;;;;;;;;4975093;28;20200;-24
2023/01/07 18:07:42;;;;;;;8.57;6.07;;;;;;;;;;4975804;28;20201;-25
2023/01/07 18:47:37;;;;;;;5.47;4.17;;;;;;;;;;5000700;28;20270;-26
2023/01/07 18:50:37;;;;;;;6.77;5.00;;;;;;;;;;5003349;28;20203;-25
2023/01/07 18:59:10;;;;;;;6.57;4.70;;;;;;;;;;4983869;28;20208;-25
2023/01/07 19:02:01;;;;;;;6.70;5.07;;;;;;;;;;4996333;28;20231;-24
2023/01/07 19:04:54;;;;;;;6.10;5.07;;;;;;;;;;4993806;28;20212;-27
2023/01/07 19:07:40;;;;;;;6.77;5.10;;;;;;;;;;4986596;28;20274;-23
2023/01/07 19:10:21;;;;;;;10.30;5.40;;;;;;;;;;4990064;28;20275;-25
2023/01/07 19:13:11;;;;;;;5.37;4.63;;;;;;;;;;4990991;28;20238;-28
2023/01/07 19:15:54;;;;;;;7.87;4.93;;;;;;;;;;4994416;28;20232;-26
2023/01/07 19:18:40;;;;;;;7.90;6.77;;;;;;;;;;5004006;28;20217;-26
2023/01/07 19:21:46;;;;;;;15.20;9.23;;;;;;;;;;4992159;28;20228;-25
2023/01/07 19:24:47;;;;;;;6.73;6.03;;;;;;;;;;4998553;28;20556;-25
2023/01/07 19:30:40;;;;;;;10.63;7.10;;;;;;;;;;4988084;28;20212;-27
2023/01/07 19:33:38;;;;;;;6.87;5.93;;;;;;;;;;4994456;28;20231;-25
2023/01/07 19:36:43;;;;;;;7.67;6.13;;;;;;;;;;4987946;28;20278;-26
2023/01/07 19:39:43;;;;;;;7.43;6.23;;;;;;;;;;4988842;28;20200;-25
2023/01/07 19:42:50;;;;;;;9.13;6.40;;;;;;;;;;4976387;28;20301;-27
2023/01/07 19:45:41;;;;;;;9.03;6.67;;;;;;;;;;4998319;28;20223;-25
2023/01/07 19:51:38;;;;;;;7.73;5.87;;;;;;;;;;4706690;27;12498018;-34
2023/01/07 19:57:37;;;;;;;7.87;5.97;;;;;;;;;;5099557;28;20240;-37
2023/01/07 20:00:45;;;;;;;8.67;5.87;;;;;;;;;;5099653;28;20618;-32
2023/01/07 20:03:42;;;;;;;7.13;5.63;;;;;;;;;;5103763;28;20210;-31
2023/01/07 20:06:27;;;;;;;7.10;5.60;;;;;;;;;;5102663;28;20216;-37
2023/01/07 20:09:24;;;;;;;7.17;5.97;;;;;;;;;;5102036;28;20204;-31
2023/01/07 20:12:02;;;;;;;8.27;6.03;;;;;;;;;;5105641;28;20219;-31
2023/01/07 20:14:43;;;;;;;6.87;5.63;;;;;;;;;;5100296;28;20204;-35
2023/01/07 20:17:12;;;;;;;8.83;6.40;;;;;;;;;;5101144;28;20219;-34
2023/01/07 20:19:52;;;;;;;7.20;5.60;;;;;;;;;;5103065;28;20572;-33
2023/01/07 20:22:39;;;;;;;14.53;9.50;;;;;;;;;;5096069;28;20215;-39
2023/01/07 20:28:12;;;;;;;12.03;7.30;;;;;;;;;;5091684;28;20232;-35
2023/01/07 20:31:05;;;;;;;7.83;6.00;;;;;;;;;;5096196;28;20286;-31
2023/01/07 20:42:40;;;;;;;8.83;6.33;;;;;;;;;;5235793;22;20270;-28
2023/01/07 20:45:10;;;;;;;8.23;6.67;;;;;;;;;;5105151;28;20204;-28
2023/01/07 20:48:04;;;;;;;10.50;6.60;;;;;;;;;;5108224;28;20196;-27
2023/01/07 20:50:47;;;;;;;11.37;7.30;;;;;;;;;;5111614;28;20225;-27
2023/01/07 20:53:37;;;;;;;11.13;7.50;;;;;;;;;;5080888;28;20227;-26
2023/01/07 20:59:32;;;;;;;12.90;7.97;;;;;;;;;;5077786;28;20230;-25
2023/01/07 21:02:16;;;;;;;17.47;9.70;;;;;;;;;;5067197;22;20235;-26
2023/01/07 21:05:19;;;;;;;16.50;9.43;;;;;;;;;;5035495;28;20229;-27
2023/01/07 21:08:09;;;;;;;11.60;7.80;;;;;;;;;;5023651;28;20229;-25
2023/01/07 21:10:53;;;;;;;29.83;15.13;;;;;;;;;;5049068;22;20231;-25
2023/01/07 21:19:22;;;;;;;14.17;8.70;;;;;;;;;;5008211;28;20290;-24
2023/01/07 21:22:14;;;;;;;13.70;8.20;;;;;;;;;;5014511;28;20231;-26
2023/01/07 21:25:18;;;;;;;11.77;6.93;;;;;;;;;;5013504;28;20286;-29
2023/01/07 21:28:00;;;;;;;16.27;9.23;;;;;;;;;;5020842;28;20290;-26
2023/01/07 21:30:54;;;;;;;15.53;8.87;;;;;;;;;;5003920;28;20226;-29
2023/01/07 21:33:44;;;;;;;12.50;8.67;;;;;;;;;;5017896;28;20230;-28
2023/01/07 21:36:18;;;;;;;16.67;8.50;;;;;;;;;;5013913;28;20207;-28
2023/01/07 21:39:01;;;;;;;22.80;14.47;;;;;;;;;;5013458;28;20293;-27
2023/01/07 21:41:48;;;;;;;32.20;19.40;;;;;;;;;;5023906;28;20237;-25
2023/01/07 21:44:34;;;;;;;22.67;14.60;;;;;;;;;;5021196;28;20211;-29
2023/01/07 21:47:22;;;;;;;17.40;10.93;;;;;;;;;;5006360;28;20209;-25
2023/01/07 21:50:17;;;;;;;20.87;12.13;;;;;;;;;;5006952;28;20251;-29
2023/01/07 22:01:00;;;;;;;15.90;9.97;;;;;;;;;;5014641;28;20637;-25
2023/01/07 22:03:52;;;;;;;20.77;11.60;;;;;;;;;;4996469;28;20220;-24
2023/01/07 22:06:38;;;;;;;22.30;12.23;;;;;;;;;;5002664;28;20204;-26
2023/01/07 22:12:35;;;;;;;20.13;12.63;;;;;;;;;;5066701;22;20229;-25
2023/01/07 22:15:19;;;;;;;16.40;10.17;;;;;;;;;;5049750;28;20271;-23
2023/01/07 22:24:50;;;;;;;15.27;10.73;;;;;;;;;;5126236;22;20368;-24
2023/01/07 23:36:47;;;;;;;7.43;5.67;;;;;;;;;;5017397;28;20284;-23
2023/01/07 23:39:35;;;;;;;8.30;5.37;;;;;;;;;;5032412;28;20226;-27
2023/01/07 23:45:54;;;;;;;7.57;5.73;;;;;;;;;;5001154;28;20214;-26
2023/01/07 23:48:59;;;;;;;8.37;6.43;;;;;;;;;;5016147;28;20261;-27
2023/01/07 23:51:46;;;;;;;7.93;5.00;;;;;;;;;;5008273;28;20318;-25
2023/01/07 23:54:43;;;;;;;7.77;5.47;;;;;;;;;;5015400;28;20377;-25
2023/01/07 23:57:39;;;;;;;9.77;6.70;;;;;;;;;;5014957;28;20211;-27
